Wallis, Texas
Current Conditions -  °F | °C
As of 11:35 AM on Thursday 30 Oct 2014 (Local Time) from KELA Reporting Station
Broken Clouds Broken Clouds  
Wind Chill: 23°   Ceiling: 1700
Heat Index: 23°   Visibility: 10mi
Dew Point: 15°   Wind: 3mph
Humidity: 63%   Direction: 80°E
Pressure: 30.14"   Gusts: NA
Location:  29.63°N, 96.07°W
Report Text: KELA 301635Z AUTO 08003KT 10SM BKN017 23/15 A3014 RMK AO2 T02270154
Loading
Personal Weather Stations






























Interactive Weather Map
Tropical Storm Tracking
New forecast layout! Learn more

10-Day Weather Forecast

Advertisements
Track Severe Weather on mobile